Time;durP1;ratioP1;P1;durP2;ratioP2;P2;SDS_P1;SDS_P2;PMS_P1;PMS_P2;Temp;Humidity;BMP_temperature;BMP_pressure;BME280_temperature;BME280_humidity;BME280_pressure;Samples;Min_cycle;Max_cycle;Signal;HPM_P1;HPM_P2
2021/01/03 05:00:44;;;;;;;46.70;22.15;;;3.60;99.90;;;;;;5812564;23;21705;-71
2021/01/03 05:03:54;;;;;;;45.28;22.08;;;3.60;99.90;;;;;;4919049;29;20206;-72
2021/01/03 05:06:24;;;;;;;48.42;22.08;;;3.70;99.90;;;;;;4909771;29;20223;-74
2021/01/03 05:08:55;;;;;;;49.78;21.92;;;3.60;99.90;;;;;;4917341;29;20214;-74
2021/01/03 05:11:23;;;;;;;40.95;19.30;;;3.70;99.90;;;;;;4900507;29;20725;-73
2021/01/03 05:14:05;;;;;;;47.28;21.55;;;3.70;99.90;;;;;;4917771;28;20206;-74
2021/01/03 05:16:32;;;;;;;44.15;20.20;;;3.70;99.90;;;;;;4899152;29;20219;-72
2021/01/03 05:18:58;;;;;;;52.38;21.45;;;3.70;99.90;;;;;;4899810;29;20211;-72
2021/01/03 05:21:24;;;;;;;37.60;19.33;;;3.70;99.90;;;;;;4898120;29;20802;-70
2021/01/03 05:23:58;;;;;;;44.28;20.42;;;3.70;99.90;;;;;;4909190;29;20206;-70
2021/01/03 05:26:31;;;;;;;39.42;19.92;;;3.70;99.90;;;;;;4914472;28;20210;-70
2021/01/03 05:28:57;;;;;;;49.08;20.23;;;3.80;99.90;;;;;;4897617;29;20208;-70
2021/01/03 05:31:25;;;;;;;39.92;18.35;;;3.80;99.90;;;;;;4898618;29;20227;-72
2021/01/03 05:33:54;;;;;;;41.00;18.88;;;3.80;99.90;;;;;;4901125;29;20211;-72
2021/01/03 05:36:28;;;;;;;35.85;17.13;;;3.80;99.90;;;;;;4900511;29;20235;-74
2021/01/03 05:38:55;;;;;;;34.90;16.75;;;3.80;99.90;;;;;;4901365;29;20215;-73
2021/01/03 05:41:34;;;;;;;39.83;19.33;;;3.90;99.90;;;;;;4902313;29;20779;-73
2021/01/03 05:44:10;;;;;;;41.97;17.38;;;3.80;99.90;;;;;;4918091;29;20214;-71
2021/01/03 05:46:42;;;;;;;30.30;15.85;;;3.90;99.90;;;;;;4912901;29;20225;-71
2021/01/03 05:49:12;;;;;;;30.15;15.05;;;3.90;99.90;;;;;;4910636;29;20270;-72
2021/01/03 05:51:42;;;;;;;35.00;16.92;;;3.90;99.90;;;;;;4899980;29;20227;-71
2021/01/03 05:54:14;;;;;;;29.20;14.90;;;3.90;99.90;;;;;;4915773;29;20215;-71
2021/01/03 05:56:41;;;;;;;30.40;15.68;;;3.90;99.90;;;;;;4911885;29;20223;-72
2021/01/03 05:59:13;;;;;;;25.52;13.48;;;4.00;99.90;;;;;;4898565;29;20203;-72
2021/01/03 06:01:39;;;;;;;32.72;14.85;;;4.00;99.90;;;;;;4912267;29;20620;-72
2021/01/03 06:04:10;;;;;;;27.90;13.25;;;3.90;99.90;;;;;;4896765;29;20223;-71
2021/01/03 06:07:03;;;;;;;28.90;13.95;;;3.90;99.90;;;;;;4897798;29;20203;-71
2021/01/03 06:09:35;;;;;;;29.52;13.70;;;4.00;99.90;;;;;;4897003;29;20573;-71
2021/01/03 06:12:06;;;;;;;35.67;15.00;;;4.00;99.90;;;;;;4896083;29;20279;-72
2021/01/03 06:14:32;;;;;;;28.77;14.68;;;4.00;99.90;;;;;;4897288;29;20207;-72
2021/01/03 06:17:06;;;;;;;28.35;14.10;;;4.00;99.90;;;;;;4895037;29;20259;-72
2021/01/03 06:19:37;;;;;;;32.15;13.82;;;4.00;99.90;;;;;;4896543;29;20223;-72
2021/01/03 06:22:13;;;;;;;18.55;11.18;;;4.00;99.90;;;;;;4895887;29;20238;-72
2021/01/03 06:24:42;;;;;;;26.83;11.63;;;4.00;99.90;;;;;;4897290;29;20211;-72
2021/01/03 06:27:19;;;;;;;27.05;14.07;;;4.00;99.90;;;;;;4896027;29;20200;-72
2021/01/03 06:29:52;;;;;;;24.50;13.57;;;4.00;99.90;;;;;;4896792;29;20219;-71
2021/01/03 06:32:41;;;;;;;30.88;12.00;;;4.00;99.90;;;;;;4894952;29;20231;-71
2021/01/03 06:35:15;;;;;;;23.63;11.15;;;4.00;99.90;;;;;;4896766;29;20302;-71
2021/01/03 06:37:49;;;;;;;27.10;13.13;;;4.00;99.90;;;;;;4906143;29;20230;-70
2021/01/03 06:40:22;;;;;;;26.90;12.73;;;4.00;99.90;;;;;;4918927;29;20269;-71
2021/01/03 06:43:24;;;;;;;24.40;12.10;;;4.00;99.90;;;;;;4916373;29;20225;-71
2021/01/03 06:46:13;;;;;;;25.92;12.38;;;4.10;99.90;;;;;;4912504;29;20225;-71
2021/01/03 06:49:21;;;;;;;25.83;12.52;;;4.10;99.90;;;;;;4915694;29;20313;-71
2021/01/03 06:52:17;;;;;;;27.77;11.40;;;4.00;99.90;;;;;;4907010;29;20226;-71
2021/01/03 06:55:16;;;;;;;23.02;12.32;;;4.00;99.90;;;;;;4918603;29;20266;-71
2021/01/03 06:58:17;;;;;;;23.10;11.95;;;4.00;99.90;;;;;;4915679;29;20210;-71
2021/01/03 07:00:48;;;;;;;21.48;12.70;;;4.00;99.90;;;;;;4913943;28;20226;-71
2021/01/03 07:03:19;;;;;;;21.55;10.90;;;4.00;99.90;;;;;;4898810;29;20627;-71
2021/01/03 07:05:51;;;;;;;21.85;11.65;;;4.00;99.90;;;;;;4902690;29;20571;-72
2021/01/03 07:08:19;;;;;;;24.13;11.88;;;4.00;99.90;;;;;;4903157;29;20215;-69
2021/01/03 07:10:45;;;;;;;23.48;12.05;;;4.00;99.90;;;;;;4902214;29;20250;-71
2021/01/03 07:13:40;;;;;;;19.58;8.88;;;4.00;99.90;;;;;;4903212;29;20239;-71
2021/01/03 07:16:10;;;;;;;21.25;11.60;;;4.00;99.90;;;;;;4899100;29;20227;-72
2021/01/03 07:18:48;;;;;;;21.20;10.75;;;4.00;99.90;;;;;;4916026;29;20323;-71
2021/01/03 07:21:36;;;;;;;24.30;11.45;;;4.00;99.90;;;;;;4912121;29;20242;-75
2021/01/03 07:24:26;;;;;;;19.73;12.00;;;4.00;99.90;;;;;;4918053;29;20294;-75
2021/01/03 07:27:37;;;;;;;19.77;11.38;;;3.90;99.90;;;;;;4910447;29;20577;-75
2021/01/03 07:30:39;;;;;;;21.85;12.13;;;3.90;99.90;;;;;;4878136;29;20211;-75
2021/01/03 07:33:18;;;;;;;15.48;9.50;;;3.90;99.90;;;;;;4871591;29;20263;-75
2021/01/03 07:35:44;;;;;;;22.45;11.63;;;3.90;99.90;;;;;;4908419;29;20257;-75
2021/01/03 07:38:27;;;;;;;19.63;11.60;;;3.90;99.90;;;;;;4912372;29;20214;-75
2021/01/03 07:40:58;;;;;;;21.13;11.38;;;3.90;99.90;;;;;;4915659;29;20536;-74
2021/01/03 07:43:25;;;;;;;26.17;12.38;;;3.90;99.90;;;;;;4898678;29;20215;-74
2021/01/03 07:45:52;;;;;;;20.40;10.80;;;3.90;99.90;;;;;;4898890;29;20223;-74
2021/01/03 07:48:34;;;;;;;14.90;10.70;;;3.90;99.90;;;;;;4897750;29;20222;-74
2021/01/03 07:51:01;;;;;;;22.48;11.02;;;3.90;99.90;;;;;;4900019;29;20227;-71
2021/01/03 07:53:34;;;;;;;19.83;11.10;;;3.90;99.90;;;;;;4899945;29;20203;-74
2021/01/03 07:56:18;;;;;;;17.60;9.95;;;3.80;99.90;;;;;;4899997;29;20243;-73
2021/01/03 07:58:44;;;;;;;17.85;11.23;;;3.90;99.90;;;;;;4916419;29;20702;-74
2021/01/03 08:01:15;;;;;;;18.63;12.20;;;3.90;99.90;;;;;;4914686;29;20239;-73
2021/01/03 08:03:41;;;;;;;21.45;10.55;;;3.90;99.90;;;;;;4917821;29;20211;-74
2021/01/03 08:06:10;;;;;;;20.65;12.18;;;3.90;99.90;;;;;;4916876;29;20218;-73
2021/01/03 08:08:36;;;;;;;18.25;11.25;;;3.90;99.90;;;;;;4899333;29;20324;-73
2021/01/03 08:11:07;;;;;;;17.95;11.30;;;3.80;99.90;;;;;;4899514;29;20218;-73
2021/01/03 08:13:37;;;;;;;16.23;11.20;;;3.80;99.90;;;;;;4898523;29;20208;-73
2021/01/03 08:16:03;;;;;;;17.08;10.65;;;3.80;99.90;;;;;;4899363;29;20219;-74
2021/01/03 08:18:34;;;;;;;19.10;10.68;;;3.80;99.90;;;;;;4898285;29;20667;-74
2021/01/03 08:21:04;;;;;;;20.95;10.77;;;3.80;99.90;;;;;;4913561;29;20230;-70
2021/01/03 08:23:33;;;;;;;12.70;7.93;;;3.80;99.90;;;;;;4916180;29;20211;-71
2021/01/03 08:26:05;;;;;;;19.02;10.05;;;3.80;99.90;;;;;;4903217;29;20211;-70
2021/01/03 08:28:34;;;;;;;20.20;11.52;;;3.80;99.90;;;;;;4897727;29;20290;-71
2021/01/03 08:31:01;;;;;;;9.63;7.55;;;3.90;99.90;;;;;;4899029;29;20639;-70
2021/01/03 08:33:38;;;;;;;15.07;9.93;;;3.90;99.90;;;;;;4896681;29;20671;-70
2021/01/03 08:36:23;;;;;;;20.83;12.15;;;3.90;99.90;;;;;;4902630;29;20245;-70
2021/01/03 08:38:50;;;;;;;13.48;8.40;;;3.90;99.90;;;;;;4905187;29;20207;-69
2021/01/03 08:41:22;;;;;;;12.82;8.55;;;3.90;99.90;;;;;;4912557;29;20233;-70
2021/01/03 08:43:48;;;;;;;10.82;8.57;;;3.90;99.90;;;;;;4898533;29;20203;-70
2021/01/03 08:46:19;;;;;;;9.43;8.05;;;3.90;99.90;;;;;;4897670;29;20616;-70
2021/01/03 08:48:49;;;;;;;11.95;7.60;;;4.00;99.90;;;;;;4902569;29;20237;-70
2021/01/03 08:51:17;;;;;;;14.50;9.07;;;3.90;99.90;;;;;;4902860;29;20250;-70
2021/01/03 08:53:43;;;;;;;14.63;9.35;;;4.00;99.90;;;;;;4911903;29;20206;-69
2021/01/03 08:56:12;;;;;;;11.57;9.45;;;4.00;99.90;;;;;;4915733;29;20234;-70
2021/01/03 08:58:39;;;;;;;11.68;8.85;;;4.00;99.90;;;;;;4899591;29;20203;-70
2021/01/03 09:01:16;;;;;;;12.20;10.43;;;4.00;99.90;;;;;;4902458;29;20302;-70
2021/01/03 09:03:43;;;;;;;13.60;8.15;;;4.00;99.90;;;;;;4899144;29;20207;-70
2021/01/03 09:06:13;;;;;;;12.65;8.85;;;3.90;99.90;;;;;;4903274;29;20214;-71
2021/01/03 09:08:41;;;;;;;13.25;7.72;;;4.00;99.90;;;;;;4917136;29;20675;-71
2021/01/03 09:11:13;;;;;;;10.93;7.60;;;4.00;99.90;;;;;;4903461;29;20234;-71
2021/01/03 09:13:45;;;;;;;14.88;8.82;;;4.00;99.90;;;;;;4898546;29;20222;-71
2021/01/03 09:16:23;;;;;;;12.68;8.32;;;4.00;99.90;;;;;;4902998;29;20220;-71
2021/01/03 09:18:59;;;;;;;12.43;7.63;;;4.00;99.90;;;;;;4899361;29;20727;-71
2021/01/03 09:21:26;;;;;;;10.93;8.65;;;4.00;99.90;;;;;;4901406;29;20239;-70
2021/01/03 09:24:01;;;;;;;8.52;7.30;;;4.00;99.90;;;;;;4899402;29;20203;-70
2021/01/03 09:26:39;;;;;;;9.02;6.50;;;4.00;99.90;;;;;;4901406;29;20206;-70
2021/01/03 09:29:12;;;;;;;12.60;7.40;;;3.90;99.90;;;;;;4903673;29;20221;-70
2021/01/03 09:31:57;;;;;;;14.38;9.35;;;3.90;99.90;;;;;;4907938;29;20590;-70
2021/01/03 09:34:32;;;;;;;11.63;9.63;;;3.90;99.90;;;;;;4905859;29;20346;-70
2021/01/03 09:37:07;;;;;;;13.05;7.93;;;3.90;99.90;;;;;;4907692;29;20239;-70
2021/01/03 09:39:45;;;;;;;12.25;7.53;;;3.90;99.90;;;;;;4896670;29;20274;-70
2021/01/03 09:42:35;;;;;;;13.18;8.90;;;3.90;99.90;;;;;;4917194;29;20225;-70
2021/01/03 09:45:36;;;;;;;12.02;7.85;;;3.90;99.90;;;;;;4907642;29;20199;-70
2021/01/03 09:48:02;;;;;;;12.88;8.65;;;3.90;99.90;;;;;;4895673;29;20215;-70
2021/01/03 09:50:33;;;;;;;12.85;9.07;;;3.90;99.90;;;;;;4897111;29;20537;-70
2021/01/03 09:53:10;;;;;;;11.13;7.20;;;4.00;99.90;;;;;;4896349;29;20211;-70
2021/01/03 09:55:44;;;;;;;9.90;6.88;;;4.00;99.90;;;;;;4896433;29;20207;-70
2021/01/03 09:58:11;;;;;;;7.80;5.57;;;3.90;99.90;;;;;;4895985;29;20211;-70
2021/01/03 10:00:53;;;;;;;8.93;7.40;;;4.00;99.90;;;;;;4896459;29;20231;-70
2021/01/03 10:03:23;;;;;;;13.35;6.97;;;3.90;99.90;;;;;;4895369;29;20350;-70
2021/01/03 10:05:50;;;;;;;10.65;6.93;;;4.00;99.90;;;;;;4896861;29;20207;-70
2021/01/03 10:08:22;;;;;;;11.13;6.20;;;3.90;99.90;;;;;;4896127;29;20226;-70
2021/01/03 10:10:51;;;;;;;6.03;5.10;;;4.00;99.90;;;;;;4904621;29;20290;-70
2021/01/03 10:13:19;;;;;;;11.70;6.60;;;3.90;99.90;;;;;;4918565;29;20258;-70
2021/01/03 10:15:49;;;;;;;7.50;6.47;;;4.00;99.90;;;;;;4903691;29;20211;-70
2021/01/03 10:18:32;;;;;;;7.15;6.18;;;4.00;99.90;;;;;;4915064;29;20206;-70
2021/01/03 10:20:59;;;;;;;8.93;7.30;;;4.00;99.90;;;;;;4909424;29;20664;-70
2021/01/03 10:23:34;;;;;;;9.30;7.45;;;4.00;99.90;;;;;;4899554;29;20219;-70
2021/01/03 10:26:02;;;;;;;11.27;7.57;;;4.00;99.90;;;;;;4899345;29;20294;-71
2021/01/03 10:28:28;;;;;;;9.88;6.68;;;4.00;99.90;;;;;;4902315;29;20218;-70
2021/01/03 10:30:54;;;;;;;9.65;7.18;;;4.00;99.90;;;;;;4907234;29;20234;-70
2021/01/03 10:33:20;;;;;;;10.13;6.93;;;4.00;99.90;;;;;;4899357;29;20223;-70
2021/01/03 10:35:46;;;;;;;7.65;6.18;;;4.00;99.90;;;;;;4900727;29;20583;-70
2021/01/03 10:38:12;;;;;;;6.28;5.68;;;4.00;99.90;;;;;;4904202;29;20258;-71
2021/01/03 10:40:39;;;;;;;5.32;4.70;;;4.00;99.90;;;;;;4915728;29;20230;-70
2021/01/03 10:43:06;;;;;;;6.25;5.13;;;4.00;99.90;;;;;;4899339;29;20218;-72
2021/01/03 10:45:33;;;;;;;7.88;5.00;;;4.00;99.90;;;;;;4908468;28;20202;-72
2021/01/03 10:47:59;;;;;;;5.60;5.10;;;4.10;99.90;;;;;;4917832;29;20286;-71
2021/01/03 10:50:25;;;;;;;5.07;4.68;;;4.10;99.90;;;;;;4917981;29;20214;-71
2021/01/03 10:52:51;;;;;;;5.05;4.65;;;4.10;99.90;;;;;;4909747;29;20211;-71
2021/01/03 10:55:21;;;;;;;5.85;5.35;;;4.10;99.90;;;;;;4914858;29;20238;-71
2021/01/03 10:57:48;;;;;;;6.25;5.65;;;4.10;99.90;;;;;;4900371;29;20251;-71
2021/01/03 11:00:15;;;;;;;5.10;4.60;;;4.10;99.90;;;;;;4902156;29;20207;-71
2021/01/03 11:02:42;;;;;;;5.40;4.90;;;4.20;99.90;;;;;;4907632;29;20210;-72
2021/01/03 11:05:09;;;;;;;6.82;5.53;;;4.20;99.90;;;;;;4907232;29;20274;-72
2021/01/03 11:07:35;;;;;;;5.13;4.60;;;4.20;99.90;;;;;;4918255;29;20289;-72
2021/01/03 11:10:01;;;;;;;4.28;3.97;;;4.20;99.90;;;;;;4914688;29;20231;-72
2021/01/03 11:12:27;;;;;;;6.28;5.45;;;4.20;99.90;;;;;;4917979;28;20234;-72
2021/01/03 11:14:54;;;;;;;5.80;4.45;;;4.20;99.90;;;;;;4903469;29;20203;-72
2021/01/03 11:17:20;;;;;;;6.07;5.53;;;4.30;99.90;;;;;;4909114;29;20227;-72
2021/01/03 11:19:46;;;;;;;5.10;4.13;;;4.30;99.90;;;;;;4918505;29;20200;-72
2021/01/03 11:22:15;;;;;;;4.50;4.10;;;4.30;99.90;;;;;;4937079;29;20245;-73
2021/01/03 11:24:43;;;;;;;5.32;4.82;;;4.30;99.90;;;;;;4923768;29;20623;-73
2021/01/03 11:27:12;;;;;;;4.85;4.30;;;4.30;99.90;;;;;;4902512;29;20243;-73
2021/01/03 11:29:38;;;;;;;4.88;4.57;;;4.30;99.90;;;;;;4912094;29;20215;-72
2021/01/03 11:32:10;;;;;;;4.32;4.03;;;4.30;99.90;;;;;;4908024;29;20622;-72
2021/01/03 11:34:37;;;;;;;4.30;4.03;;;4.30;99.90;;;;;;4900457;29;20211;-71
2021/01/03 11:37:05;;;;;;;4.03;3.80;;;4.40;99.90;;;;;;4911178;29;20271;-72
2021/01/03 11:39:33;;;;;;;5.32;3.92;;;4.30;99.90;;;;;;4901376;29;20215;-72
2021/01/03 11:42:02;;;;;;;4.90;4.20;;;4.40;99.90;;;;;;4899722;29;20233;-72
2021/01/03 11:44:28;;;;;;;3.80;3.60;;;4.40;99.90;;;;;;4907153;29;20289;-72
2021/01/03 11:46:59;;;;;;;3.70;3.50;;;4.40;99.90;;;;;;4903095;29;20239;-72
2021/01/03 11:49:26;;;;;;;4.72;4.32;;;4.40;99.90;;;;;;4902336;29;20207;-72
2021/01/03 11:51:53;;;;;;;5.78;5.20;;;4.40;99.90;;;;;;4901094;29;20227;-72
2021/01/03 11:54:19;;;;;;;5.65;4.68;;;4.40;99.90;;;;;;4901248;29;20211;-72
2021/01/03 11:56:45;;;;;;;6.22;5.30;;;4.40;99.90;;;;;;4911520;29;20253;-72
2021/01/03 11:59:12;;;;;;;6.75;4.65;;;4.40;99.90;;;;;;4917174;29;20207;-72
2021/01/03 12:01:38;;;;;;;4.15;3.85;;;4.40;99.90;;;;;;4916686;28;20228;-72
2021/01/03 12:04:05;;;;;;;10.70;7.13;;;4.40;99.90;;;;;;4904774;29;20214;-72
2021/01/03 12:06:32;;;;;;;5.28;3.97;;;4.50;99.90;;;;;;4904024;29;20207;-72
2021/01/03 12:08:58;;;;;;;4.05;3.85;;;4.40;99.90;;;;;;4907766;29;20206;-72
2021/01/03 12:11:26;;;;;;;3.97;3.70;;;4.50;99.90;;;;;;4906915;29;20253;-72
2021/01/03 12:13:55;;;;;;;4.63;4.10;;;4.50;99.90;;;;;;4908918;29;20211;-72
2021/01/03 12:16:24;;;;;;;4.25;3.95;;;4.50;99.90;;;;;;4913930;29;20222;-72
2021/01/03 12:18:51;;;;;;;5.68;3.63;;;4.50;99.90;;;;;;4923801;29;20214;-72
2021/01/03 12:21:22;;;;;;;4.85;4.05;;;4.50;99.90;;;;;;4923585;28;20241;-72
2021/01/03 12:23:49;;;;;;;3.50;3.20;;;4.50;99.90;;;;;;4923474;29;20292;-72
2021/01/03 12:26:15;;;;;;;4.18;3.97;;;4.50;99.90;;;;;;4915133;29;20571;-72
2021/01/03 12:28:41;;;;;;;3.67;3.47;;;4.60;99.90;;;;;;4912759;29;20211;-71
2021/01/03 12:31:07;;;;;;;5.55;5.05;;;4.60;99.90;;;;;;4902946;29;20234;-71
2021/01/03 12:33:33;;;;;;;4.10;3.80;;;4.70;99.90;;;;;;4898098;29;20215;-71
2021/01/03 12:36:00;;;;;;;3.60;3.40;;;4.70;99.90;;;;;;4913521;28;20255;-71
2021/01/03 12:38:26;;;;;;;3.53;3.20;;;4.70;99.90;;;;;;4915118;29;20551;-70
2021/01/03 12:40:53;;;;;;;4.40;3.90;;;4.70;99.90;;;;;;4916234;29;20273;-71
2021/01/03 12:43:19;;;;;;;4.55;3.88;;;4.80;99.90;;;;;;4911107;29;20206;-71
2021/01/03 12:45:45;;;;;;;4.30;4.00;;;4.80;99.90;;;;;;4915250;29;20211;-72
2021/01/03 12:48:11;;;;;;;4.35;3.95;;;4.70;99.90;;;;;;4903790;28;20758;-71
2021/01/03 12:50:37;;;;;;;4.10;3.83;;;4.70;99.90;;;;;;4903188;29;20230;-71
2021/01/03 12:53:03;;;;;;;5.05;3.80;;;4.70;99.90;;;;;;4898624;29;20518;-71
2021/01/03 12:55:29;;;;;;;3.45;3.15;;;4.70;99.90;;;;;;4900252;29;20660;-70
2021/01/03 12:57:56;;;;;;;3.85;3.55;;;4.70;99.90;;;;;;4897657;29;20242;-71
2021/01/03 13:00:23;;;;;;;4.50;4.20;;;4.70;99.90;;;;;;4899426;29;20263;-71
2021/01/03 13:02:50;;;;;;;4.32;3.83;;;4.70;99.90;;;;;;4911373;29;20293;-72
2021/01/03 13:05:17;;;;;;;4.13;3.85;;;4.70;99.90;;;;;;4914344;29;20206;-72
2021/01/03 13:07:43;;;;;;;4.55;4.15;;;4.60;99.90;;;;;;4915954;28;20199;-72
2021/01/03 13:10:11;;;;;;;4.65;3.88;;;4.70;99.90;;;;;;4908849;29;20574;-72
2021/01/03 13:12:37;;;;;;;4.85;4.45;;;4.70;99.90;;;;;;4910995;29;20663;-71
2021/01/03 13:15:06;;;;;;;4.15;3.95;;;4.70;99.90;;;;;;4916464;29;20321;-72
2021/01/03 13:17:32;;;;;;;4.45;3.53;;;4.60;99.90;;;;;;4915332;28;20234;-72
2021/01/03 13:19:58;;;;;;;4.05;3.85;;;4.60;99.90;;;;;;4907591;29;20218;-71
2021/01/03 13:22:24;;;;;;;4.57;4.28;;;4.60;99.90;;;;;;4896912;29;20242;-71
2021/01/03 13:24:50;;;;;;;4.72;4.35;;;4.60;99.90;;;;;;4897543;29;20262;-70
2021/01/03 13:27:16;;;;;;;3.70;3.28;;;4.60;99.90;;;;;;4897139;29;20203;-71
2021/01/03 13:29:43;;;;;;;4.20;3.70;;;4.50;99.90;;;;;;4902742;29;20219;-70
2021/01/03 13:32:11;;;;;;;4.03;3.47;;;4.50;99.90;;;;;;4915130;29;20321;-71
2021/01/03 13:34:37;;;;;;;5.10;4.70;;;4.50;99.90;;;;;;4914983;29;20674;-71
2021/01/03 13:37:03;;;;;;;3.65;3.33;;;4.40;99.90;;;;;;4915558;29;20314;-70
2021/01/03 13:39:29;;;;;;;4.32;3.97;;;4.40;99.90;;;;;;4921166;28;20666;-72
2021/01/03 13:41:55;;;;;;;4.40;4.00;;;4.40;99.90;;;;;;4922000;29;20636;-72
2021/01/03 13:44:21;;;;;;;5.38;3.65;;;4.40;99.90;;;;;;4923429;29;20235;-73
2021/01/03 13:46:52;;;;;;;7.38;4.60;;;4.40;99.90;;;;;;4920617;29;20293;-72
2021/01/03 13:49:19;;;;;;;5.43;4.93;;;4.30;99.90;;;;;;4919456;29;20210;-72
2021/01/03 13:51:47;;;;;;;5.32;4.82;;;4.30;99.90;;;;;;4902006;29;20239;-72
2021/01/03 13:54:14;;;;;;;4.40;3.95;;;4.30;99.90;;;;;;4909910;29;20647;-72
2021/01/03 13:56:40;;;;;;;4.43;4.03;;;4.30;99.90;;;;;;4911768;29;20227;-71
2021/01/03 13:59:07;;;;;;;10.40;5.30;;;4.30;99.90;;;;;;4900932;29;20604;-72
2021/01/03 14:01:35;;;;;;;5.97;4.72;;;4.30;99.90;;;;;;4902522;29;20271;-71
2021/01/03 14:04:01;;;;;;;5.22;4.70;;;4.20;99.90;;;;;;4912728;29;20324;-72
2021/01/03 14:06:28;;;;;;;4.43;4.03;;;4.30;99.90;;;;;;4919020;29;20513;-72
2021/01/03 14:08:55;;;;;;;5.13;4.80;;;4.20;99.90;;;;;;4913352;29;20331;-72
2021/01/03 14:11:22;;;;;;;4.30;4.00;;;4.30;99.90;;;;;;4916033;29;20233;-72
2021/01/03 14:13:48;;;;;;;5.53;5.03;;;4.30;99.90;;;;;;4913155;29;20214;-72
2021/01/03 14:16:19;;;;;;;6.03;5.53;;;4.30;99.90;;;;;;4903043;29;20231;-71
2021/01/03 14:18:48;;;;;;;7.95;4.72;;;4.30;99.90;;;;;;4903796;29;20231;-71
2021/01/03 14:21:14;;;;;;;7.40;4.95;;;4.30;99.90;;;;;;4898866;29;20228;-72
2021/01/03 14:23:41;;;;;;;7.47;6.03;;;4.30;99.90;;;;;;4909717;29;20208;-71
2021/01/03 14:26:07;;;;;;;6.65;5.03;;;4.20;99.90;;;;;;4897871;29;20206;-71
2021/01/03 14:28:34;;;;;;;6.10;5.35;;;4.10;99.90;;;;;;4897835;29;20222;-71
2021/01/03 14:31:00;;;;;;;9.50;6.32;;;4.10;99.90;;;;;;4916318;29;20617;-71
2021/01/03 14:33:29;;;;;;;5.60;4.70;;;4.00;99.90;;;;;;4912115;29;20210;-71
2021/01/03 14:36:02;;;;;;;9.63;5.10;;;4.00;99.90;;;;;;4915887;29;20211;-71
2021/01/03 14:38:31;;;;;;;8.60;5.78;;;3.90;99.90;;;;;;4908199;29;20632;-71
2021/01/03 14:41:00;;;;;;;8.93;8.00;;;3.90;99.90;;;;;;4899061;29;20235;-71
2021/01/03 14:43:31;;;;;;;7.15;5.72;;;3.90;99.90;;;;;;4907190;29;20255;-71
2021/01/03 14:46:02;;;;;;;8.65;6.55;;;3.90;99.90;;;;;;4914299;29;20233;-71
2021/01/03 14:48:44;;;;;;;10.00;7.35;;;3.90;99.90;;;;;;4915216;29;20206;-71
2021/01/03 14:51:18;;;;;;;6.07;5.47;;;3.90;99.90;;;;;;4897256;29;20234;-70
2021/01/03 14:53:52;;;;;;;8.45;5.28;;;3.80;99.90;;;;;;4897274;29;20203;-71
2021/01/03 14:56:36;;;;;;;5.10;4.40;;;3.80;99.90;;;;;;4904262;29;20227;-71
2021/01/03 14:59:27;;;;;;;5.60;4.93;;;3.80;99.90;;;;;;4901679;29;20199;-71
2021/01/03 15:02:09;;;;;;;5.93;5.35;;;3.80;99.90;;;;;;4900322;29;20661;-71
2021/01/03 15:04:41;;;;;;;6.53;5.25;;;3.80;99.90;;;;;;4901610;29;20210;-71
2021/01/03 15:07:12;;;;;;;8.25;5.32;;;3.70;99.90;;;;;;4900612;29;20210;-72
2021/01/03 15:09:41;;;;;;;4.45;4.15;;;3.70;99.90;;;;;;4907046;29;20210;-72
2021/01/03 15:12:10;;;;;;;7.97;5.20;;;3.70;99.90;;;;;;4916969;29;20710;-71
2021/01/03 15:14:39;;;;;;;8.13;6.38;;;3.60;99.90;;;;;;4909465;29;20684;-72
2021/01/03 15:17:13;;;;;;;8.50;6.25;;;3.50;99.90;;;;;;4925414;29;20281;-71
2021/01/03 15:19:44;;;;;;;5.82;4.45;;;3.50;99.90;;;;;;4907854;29;20653;-72
2021/01/03 15:22:12;;;;;;;11.88;7.25;;;3.50;99.90;;;;;;4918144;29;20771;-72
2021/01/03 15:24:40;;;;;;;10.50;6.82;;;3.50;99.90;;;;;;4918270;28;20214;-72
2021/01/03 15:27:13;;;;;;;8.95;6.45;;;3.40;99.90;;;;;;4910240;29;20326;-71
2021/01/03 15:29:44;;;;;;;4.88;4.38;;;3.40;99.90;;;;;;4913429;29;20215;-71
2021/01/03 15:32:10;;;;;;;7.32;6.20;;;3.40;99.90;;;;;;4908460;29;20231;-72
2021/01/03 15:34:43;;;;;;;5.50;4.00;;;3.40;99.90;;;;;;4900255;29;20212;-70
2021/01/03 15:37:34;;;;;;;8.45;6.68;;;3.40;99.90;;;;;;4910557;29;20214;-71
2021/01/03 15:40:00;;;;;;;9.52;6.93;;;3.30;99.90;;;;;;4917435;29;20199;-71
2021/01/03 15:42:31;;;;;;;22.13;9.43;;;3.30;99.90;;;;;;4916618;28;20231;-70
2021/01/03 15:45:01;;;;;;;12.40;8.73;;;3.30;99.90;;;;;;4906388;29;20346;-71
2021/01/03 15:47:31;;;;;;;9.23;7.18;;;3.30;99.90;;;;;;4911273;29;20199;-72
2021/01/03 15:49:58;;;;;;;9.57;8.10;;;3.30;99.90;;;;;;4907714;29;20317;-71
2021/01/03 15:52:28;;;;;;;12.68;7.93;;;3.30;99.90;;;;;;4917871;28;20231;-71
2021/01/03 15:54:54;;;;;;;12.80;7.80;;;3.30;99.90;;;;;;4906447;29;20214;-71
2021/01/03 15:57:22;;;;;;;10.90;6.65;;;3.30;99.90;;;;;;4912665;29;20719;-71
2021/01/03 15:59:49;;;;;;;9.05;7.03;;;3.20;99.90;;;;;;4916659;29;20289;-71
2021/01/03 16:02:16;;;;;;;15.32;9.88;;;3.30;99.90;;;;;;4908838;29;20274;-70
2021/01/03 16:04:43;;;;;;;9.93;7.18;;;3.30;99.90;;;;;;4900111;29;20226;-70
2021/01/03 16:07:10;;;;;;;11.52;7.05;;;3.30;99.90;;;;;;4914692;29;20203;-70
2021/01/03 16:09:36;;;;;;;11.13;7.53;;;3.20;99.90;;;;;;4909862;29;20205;-69
2021/01/03 16:12:02;;;;;;;13.23;7.05;;;3.30;99.90;;;;;;4907071;29;20242;-69
2021/01/03 16:14:28;;;;;;;10.93;7.28;;;3.30;99.90;;;;;;4917783;29;20289;-70
2021/01/03 16:16:56;;;;;;;12.52;9.10;;;3.30;99.90;;;;;;4915688;29;20226;-70
2021/01/03 16:19:28;;;;;;;12.15;7.88;;;3.30;99.90;;;;;;4916414;29;20567;-70
2021/01/03 16:22:10;;;;;;;13.40;6.97;;;3.30;99.90;;;;;;4915041;29;20240;-70
2021/01/03 16:24:36;;;;;;;15.45;8.82;;;3.30;99.90;;;;;;4909094;29;20648;-70
2021/01/03 16:27:07;;;;;;;17.00;8.75;;;3.30;99.90;;;;;;4906182;29;20197;-70
2021/01/03 16:29:47;;;;;;;12.63;7.65;;;3.30;99.90;;;;;;4898342;29;20211;-70
2021/01/03 16:32:36;;;;;;;12.98;8.35;;;3.30;99.90;;;;;;4900987;29;20224;-70
2021/01/03 16:35:43;;;;;;;11.70;7.72;;;3.30;99.90;;;;;;4906328;29;20206;-70
2021/01/03 16:38:28;;;;;;;11.95;8.05;;;3.30;99.90;;;;;;4884005;29;20231;-69
2021/01/03 16:40:59;;;;;;;11.55;7.30;;;3.30;99.90;;;;;;4898108;29;20227;-69
2021/01/03 16:43:34;;;;;;;10.48;7.63;;;3.30;99.90;;;;;;4904195;29;20211;-69
2021/01/03 16:46:20;;;;;;;16.25;8.52;;;3.30;99.90;;;;;;4914657;29;20209;-69
2021/01/03 16:49:21;;;;;;;14.57;9.25;;;3.30;99.90;;;;;;4911583;29;20210;-68
2021/01/03 16:51:56;;;;;;;13.02;8.27;;;3.30;99.90;;;;;;4897506;29;20294;-71
2021/01/03 16:54:48;;;;;;;11.85;7.05;;;3.30;99.90;;;;;;4900058;29;20250;-69
2021/01/03 16:57:46;;;;;;;9.05;5.85;;;3.40;99.90;;;;;;4893557;29;20235;-70
2021/01/03 17:00:22;;;;;;;10.15;7.30;;;3.40;99.90;;;;;;4914133;29;20206;-70
2021/01/03 17:02:51;;;;;;;13.25;7.10;;;3.40;99.90;;;;;;4909565;29;20209;-70
2021/01/03 17:05:20;;;;;;;19.52;10.18;;;3.40;99.90;;;;;;4906624;29;20582;-69
2021/01/03 17:07:53;;;;;;;13.40;8.50;;;3.40;99.90;;;;;;4908935;29;20206;-69
2021/01/03 17:10:51;;;;;;;13.13;9.68;;;3.40;99.90;;;;;;4915695;29;20214;-69
2021/01/03 17:13:28;;;;;;;10.85;8.50;;;3.40;99.90;;;;;;4899299;29;20290;-69
2021/01/03 17:15:59;;;;;;;15.77;10.68;;;3.50;99.90;;;;;;4908461;29;20226;-71
2021/01/03 17:18:38;;;;;;;14.90;8.90;;;3.50;99.90;;;;;;4907141;29;20292;-70
2021/01/03 17:21:15;;;;;;;15.45;9.15;;;3.40;99.90;;;;;;4916354;29;20238;-71
2021/01/03 17:23:48;;;;;;;14.07;9.63;;;3.50;99.90;;;;;;4901211;29;20561;-69
2021/01/03 17:26:30;;;;;;;15.90;9.65;;;3.40;99.90;;;;;;4912645;29;20249;-70
2021/01/03 17:29:18;;;;;;;12.15;8.45;;;3.50;99.90;;;;;;4908889;29;20667;-70
2021/01/03 17:32:00;;;;;;;16.80;9.65;;;3.50;99.90;;;;;;4891261;29;20356;-71
2021/01/03 17:34:40;;;;;;;12.75;8.68;;;3.50;99.90;;;;;;4897473;29;20207;-71
2021/01/03 17:37:17;;;;;;;18.23;9.20;;;3.50;99.90;;;;;;4896979;29;20231;-70
2021/01/03 17:39:47;;;;;;;12.43;8.27;;;3.50;99.90;;;;;;4896055;29;20262;-70
2021/01/03 17:42:19;;;;;;;20.15;11.10;;;3.50;99.90;;;;;;4895596;29;20234;-70
2021/01/03 17:44:48;;;;;;;14.70;9.05;;;3.50;99.90;;;;;;4896993;29;20298;-70
2021/01/03 17:47:33;;;;;;;14.73;9.02;;;3.50;99.90;;;;;;4896565;29;20215;-70
2021/01/03 17:50:02;;;;;;;15.93;8.82;;;3.60;99.90;;;;;;4914521;29;20301;-70
2021/01/03 17:52:33;;;;;;;19.27;10.43;;;3.50;99.90;;;;;;4913297;29;20227;-70
2021/01/03 17:54:59;;;;;;;12.27;8.65;;;3.60;99.90;;;;;;4900716;29;20266;-70
2021/01/03 17:57:26;;;;;;;12.57;7.50;;;3.60;99.90;;;;;;4914942;29;20229;-70
2021/01/03 17:59:52;;;;;;;13.98;7.97;;;3.60;99.90;;;;;;4897368;29;20593;-70
2021/01/03 18:02:19;;;;;;;12.23;8.35;;;3.60;99.90;;;;;;4900728;29;20230;-70
2021/01/03 18:04:45;;;;;;;11.38;9.40;;;3.60;99.90;;;;;;4915093;28;20242;-70
2021/01/03 18:07:12;;;;;;;15.60;7.97;;;3.60;99.90;;;;;;4915970;29;20206;-70
2021/01/03 18:09:40;;;;;;;9.05;7.50;;;3.60;99.90;;;;;;4897785;29;20203;-70
2021/01/03 18:12:08;;;;;;;12.13;7.40;;;3.60;99.90;;;;;;4895621;29;20314;-70